sensor_id;sensor_type;location;lat;lon;timestamp;P1;durP1;ratioP1;P2;durP2;ratioP2
48871;SDS011;36154;51.674;7.824;2024-03-22T00:01:08;1.60;;;1.50;;
48871;SDS011;36154;51.674;7.824;2024-03-22T00:03:33;1.38;;;1.35;;
48871;SDS011;36154;51.674;7.824;2024-03-22T00:05:59;0.98;;;0.98;;
48871;SDS011;36154;51.674;7.824;2024-03-22T00:08:24;1.40;;;1.40;;
48871;SDS011;36154;51.674;7.824;2024-03-22T00:10:50;1.30;;;1.30;;
48871;SDS011;36154;51.674;7.824;2024-03-22T00:13:15;1.95;;;1.40;;
48871;SDS011;36154;51.674;7.824;2024-03-22T00:15:40;2.08;;;1.52;;
48871;SDS011;36154;51.674;7.824;2024-03-22T00:18:07;2.28;;;1.50;;
48871;SDS011;36154;51.674;7.824;2024-03-22T00:20:32;1.92;;;1.45;;
48871;SDS011;36154;51.674;7.824;2024-03-22T00:22:57;1.55;;;1.45;;
48871;SDS011;36154;51.674;7.824;2024-03-22T00:25:23;1.40;;;1.40;;
48871;SDS011;36154;51.674;7.824;2024-03-22T00:27:48;1.77;;;1.67;;
48871;SDS011;36154;51.674;7.824;2024-03-22T00:30:13;1.75;;;1.65;;
48871;SDS011;36154;51.674;7.824;2024-03-22T00:32:40;1.30;;;1.30;;
48871;SDS011;36154;51.674;7.824;2024-03-22T00:35:05;1.67;;;1.58;;
48871;SDS011;36154;51.674;7.824;2024-03-22T00:37:31;1.70;;;1.60;;
48871;SDS011;36154;51.674;7.824;2024-03-22T00:39:56;2.10;;;1.60;;
48871;SDS011;36154;51.674;7.824;2024-03-22T00:42:21;1.63;;;1.60;;
48871;SDS011;36154;51.674;7.824;2024-03-22T00:44:47;1.53;;;1.43;;
48871;SDS011;36154;51.674;7.824;2024-03-22T00:47:12;2.22;;;2.13;;
48871;SDS011;36154;51.674;7.824;2024-03-22T00:49:37;1.90;;;1.63;;
48871;SDS011;36154;51.674;7.824;2024-03-22T00:52:02;1.75;;;1.65;;
48871;SDS011;36154;51.674;7.824;2024-03-22T00:54:28;1.73;;;1.63;;
48871;SDS011;36154;51.674;7.824;2024-03-22T00:56:53;2.07;;;1.90;;
48871;SDS011;36154;51.674;7.824;2024-03-22T00:59:18;2.15;;;2.05;;
48871;SDS011;36154;51.674;7.824;2024-03-22T01:01:43;2.10;;;2.00;;
48871;SDS011;36154;51.674;7.824;2024-03-22T01:04:09;2.17;;;2.05;;
48871;SDS011;36154;51.674;7.824;2024-03-22T01:06:34;2.05;;;1.95;;
48871;SDS011;36154;51.674;7.824;2024-03-22T01:09:00;2.17;;;2.08;;
48871;SDS011;36154;51.674;7.824;2024-03-22T01:11:25;1.92;;;1.83;;
48871;SDS011;36154;51.674;7.824;2024-03-22T01:13:50;1.88;;;1.77;;
48871;SDS011;36154;51.674;7.824;2024-03-22T01:16:16;2.00;;;1.90;;
48871;SDS011;36154;51.674;7.824;2024-03-22T01:18:41;1.90;;;1.80;;
48871;SDS011;36154;51.674;7.824;2024-03-22T01:21:07;2.00;;;1.90;;
48871;SDS011;36154;51.674;7.824;2024-03-22T01:23:32;2.08;;;1.98;;
48871;SDS011;36154;51.674;7.824;2024-03-22T01:25:57;2.00;;;1.90;;
48871;SDS011;36154;51.674;7.824;2024-03-22T01:28:22;1.75;;;1.65;;
48871;SDS011;36154;51.674;7.824;2024-03-22T01:30:48;2.10;;;1.90;;
48871;SDS011;36154;51.674;7.824;2024-03-22T01:33:13;1.80;;;1.70;;
48871;SDS011;36154;51.674;7.824;2024-03-22T01:35:38;1.75;;;1.65;;
48871;SDS011;36154;51.674;7.824;2024-03-22T01:38:04;1.90;;;1.80;;
48871;SDS011;36154;51.674;7.824;2024-03-22T01:40:29;1.88;;;1.77;;
48871;SDS011;36154;51.674;7.824;2024-03-22T01:42:58;2.17;;;2.08;;
48871;SDS011;36154;51.674;7.824;2024-03-22T01:45:25;2.05;;;1.95;;
48871;SDS011;36154;51.674;7.824;2024-03-22T01:47:51;1.95;;;1.85;;
48871;SDS011;36154;51.674;7.824;2024-03-22T01:50:18;1.80;;;1.70;;
48871;SDS011;36154;51.674;7.824;2024-03-22T01:52:44;1.83;;;1.73;;
48871;SDS011;36154;51.674;7.824;2024-03-22T01:55:09;2.00;;;1.90;;
48871;SDS011;36154;51.674;7.824;2024-03-22T01:57:35;1.92;;;1.83;;
48871;SDS011;36154;51.674;7.824;2024-03-22T02:00:01;1.98;;;1.88;;
48871;SDS011;36154;51.674;7.824;2024-03-22T02:02:26;1.85;;;1.75;;
48871;SDS011;36154;51.674;7.824;2024-03-22T02:04:51;1.98;;;1.88;;
48871;SDS011;36154;51.674;7.824;2024-03-22T02:07:17;2.00;;;1.90;;
48871;SDS011;36154;51.674;7.824;2024-03-22T02:09:42;1.80;;;1.70;;
48871;SDS011;36154;51.674;7.824;2024-03-22T02:12:08;2.10;;;2.00;;
48871;SDS011;36154;51.674;7.824;2024-03-22T02:14:34;2.40;;;2.30;;
48871;SDS011;36154;51.674;7.824;2024-03-22T02:16:59;2.60;;;2.40;;
48871;SDS011;36154;51.674;7.824;2024-03-22T02:19:24;2.10;;;2.00;;
48871;SDS011;36154;51.674;7.824;2024-03-22T02:21:50;2.10;;;2.00;;
48871;SDS011;36154;51.674;7.824;2024-03-22T02:24:15;1.95;;;1.85;;
48871;SDS011;36154;51.674;7.824;2024-03-22T02:26:40;2.05;;;1.95;;
48871;SDS011;36154;51.674;7.824;2024-03-22T02:29:05;1.85;;;1.75;;
48871;SDS011;36154;51.674;7.824;2024-03-22T02:31:31;2.03;;;1.92;;
48871;SDS011;36154;51.674;7.824;2024-03-22T02:33:57;2.00;;;1.90;;
48871;SDS011;36154;51.674;7.824;2024-03-22T02:36:23;1.80;;;1.70;;
48871;SDS011;36154;51.674;7.824;2024-03-22T02:38:48;2.33;;;1.67;;
48871;SDS011;36154;51.674;7.824;2024-03-22T02:41:13;2.47;;;2.30;;
48871;SDS011;36154;51.674;7.824;2024-03-22T02:43:38;2.10;;;2.00;;
48871;SDS011;36154;51.674;7.824;2024-03-22T02:46:04;2.20;;;2.10;;
48871;SDS011;36154;51.674;7.824;2024-03-22T02:48:29;1.95;;;1.85;;
48871;SDS011;36154;51.674;7.824;2024-03-22T02:50:56;1.98;;;1.80;;
48871;SDS011;36154;51.674;7.824;2024-03-22T02:53:22;2.15;;;2.05;;
48871;SDS011;36154;51.674;7.824;2024-03-22T02:55:47;2.00;;;1.90;;
48871;SDS011;36154;51.674;7.824;2024-03-22T02:58:12;1.92;;;1.83;;
48871;SDS011;36154;51.674;7.824;2024-03-22T03:00:38;1.70;;;1.60;;
48871;SDS011;36154;51.674;7.824;2024-03-22T03:03:04;2.05;;;1.95;;
48871;SDS011;36154;51.674;7.824;2024-03-22T03:05:30;1.80;;;1.70;;
48871;SDS011;36154;51.674;7.824;2024-03-22T03:07:55;2.00;;;1.90;;
48871;SDS011;36154;51.674;7.824;2024-03-22T03:10:20;2.10;;;2.00;;
48871;SDS011;36154;51.674;7.824;2024-03-22T03:12:45;2.28;;;2.13;;
48871;SDS011;36154;51.674;7.824;2024-03-22T03:15:11;1.70;;;1.60;;
48871;SDS011;36154;51.674;7.824;2024-03-22T03:17:36;2.00;;;1.90;;
48871;SDS011;36154;51.674;7.824;2024-03-22T03:20:01;1.85;;;1.75;;
48871;SDS011;36154;51.674;7.824;2024-03-22T03:22:27;2.28;;;2.10;;
48871;SDS011;36154;51.674;7.824;2024-03-22T03:24:53;2.00;;;1.90;;
48871;SDS011;36154;51.674;7.824;2024-03-22T03:27:18;2.00;;;1.90;;
48871;SDS011;36154;51.674;7.824;2024-03-22T03:29:43;2.08;;;1.98;;
48871;SDS011;36154;51.674;7.824;2024-03-22T03:32:08;2.10;;;2.00;;
48871;SDS011;36154;51.674;7.824;2024-03-22T03:34:34;1.90;;;1.80;;
48871;SDS011;36154;51.674;7.824;2024-03-22T03:36:59;2.20;;;2.10;;
48871;SDS011;36154;51.674;7.824;2024-03-22T03:39:26;1.80;;;1.70;;
48871;SDS011;36154;51.674;7.824;2024-03-22T03:41:52;1.67;;;1.58;;
48871;SDS011;36154;51.674;7.824;2024-03-22T03:44:17;1.80;;;1.70;;
48871;SDS011;36154;51.674;7.824;2024-03-22T03:46:42;1.80;;;1.70;;
48871;SDS011;36154;51.674;7.824;2024-03-22T03:49:07;2.28;;;2.15;;
48871;SDS011;36154;51.674;7.824;2024-03-22T03:51:33;2.17;;;2.00;;
48871;SDS011;36154;51.674;7.824;2024-03-22T03:53:58;1.65;;;1.55;;
48871;SDS011;36154;51.674;7.824;2024-03-22T03:56:23;2.00;;;1.90;;
48871;SDS011;36154;51.674;7.824;2024-03-22T03:58:49;2.00;;;1.90;;
48871;SDS011;36154;51.674;7.824;2024-03-22T04:01:14;2.07;;;1.97;;
48871;SDS011;36154;51.674;7.824;2024-03-22T04:03:39;1.90;;;1.80;;
48871;SDS011;36154;51.674;7.824;2024-03-22T04:06:04;1.88;;;1.77;;
48871;SDS011;36154;51.674;7.824;2024-03-22T04:08:30;2.00;;;1.90;;
48871;SDS011;36154;51.674;7.824;2024-03-22T04:10:56;1.85;;;1.75;;
48871;SDS011;36154;51.674;7.824;2024-03-22T04:13:22;1.67;;;1.58;;
48871;SDS011;36154;51.674;7.824;2024-03-22T04:15:48;2.10;;;2.00;;
48871;SDS011;36154;51.674;7.824;2024-03-22T04:18:14;2.08;;;1.98;;
48871;SDS011;36154;51.674;7.824;2024-03-22T04:20:39;1.70;;;1.60;;
48871;SDS011;36154;51.674;7.824;2024-03-22T04:23:04;1.75;;;1.65;;
48871;SDS011;36154;51.674;7.824;2024-03-22T04:25:29;2.15;;;2.05;;
48871;SDS011;36154;51.674;7.824;2024-03-22T04:27:55;1.80;;;1.70;;
48871;SDS011;36154;51.674;7.824;2024-03-22T04:30:20;1.60;;;1.50;;
48871;SDS011;36154;51.674;7.824;2024-03-22T04:32:46;1.85;;;1.75;;
48871;SDS011;36154;51.674;7.824;2024-03-22T04:35:11;6.78;;;1.60;;
48871;SDS011;36154;51.674;7.824;2024-03-22T04:37:37;1.88;;;1.77;;
48871;SDS011;36154;51.674;7.824;2024-03-22T04:40:02;1.73;;;1.63;;
48871;SDS011;36154;51.674;7.824;2024-03-22T04:42:28;1.77;;;1.67;;
48871;SDS011;36154;51.674;7.824;2024-03-22T04:44:53;2.13;;;2.03;;
48871;SDS011;36154;51.674;7.824;2024-03-22T04:47:19;1.77;;;1.67;;
48871;SDS011;36154;51.674;7.824;2024-03-22T04:49:45;1.75;;;1.65;;
48871;SDS011;36154;51.674;7.824;2024-03-22T04:52:10;2.22;;;2.03;;
48871;SDS011;36154;51.674;7.824;2024-03-22T04:54:35;1.90;;;1.80;;
48871;SDS011;36154;51.674;7.824;2024-03-22T04:57:01;2.10;;;2.00;;
48871;SDS011;36154;51.674;7.824;2024-03-22T04:59:26;2.10;;;2.00;;
48871;SDS011;36154;51.674;7.824;2024-03-22T05:01:51;2.40;;;2.30;;
48871;SDS011;36154;51.674;7.824;2024-03-22T05:04:16;2.07;;;1.97;;
48871;SDS011;36154;51.674;7.824;2024-03-22T05:06:42;2.03;;;1.92;;
48871;SDS011;36154;51.674;7.824;2024-03-22T05:09:07;1.95;;;1.85;;
48871;SDS011;36154;51.674;7.824;2024-03-22T05:11:35;1.60;;;1.50;;
48871;SDS011;36154;51.674;7.824;2024-03-22T05:14:00;1.80;;;1.70;;
48871;SDS011;36154;51.674;7.824;2024-03-22T05:16:25;1.88;;;1.77;;
48871;SDS011;36154;51.674;7.824;2024-03-22T05:18:50;1.60;;;1.50;;
48871;SDS011;36154;51.674;7.824;2024-03-22T05:21:16;1.47;;;1.20;;
48871;SDS011;36154;51.674;7.824;2024-03-22T05:23:41;1.63;;;1.52;;
48871;SDS011;36154;51.674;7.824;2024-03-22T05:26:06;1.80;;;1.70;;
48871;SDS011;36154;51.674;7.824;2024-03-22T05:28:32;3.45;;;1.77;;
48871;SDS011;36154;51.674;7.824;2024-03-22T05:30:57;1.98;;;1.20;;
48871;SDS011;36154;51.674;7.824;2024-03-22T05:33:22;2.92;;;2.03;;
48871;SDS011;36154;51.674;7.824;2024-03-22T05:35:47;2.40;;;2.10;;
48871;SDS011;36154;51.674;7.824;2024-03-22T05:38:13;8.07;;;4.87;;
48871;SDS011;36154;51.674;7.824;2024-03-22T05:40:38;4.50;;;3.90;;
48871;SDS011;36154;51.674;7.824;2024-03-22T05:43:03;7.65;;;4.57;;
48871;SDS011;36154;51.674;7.824;2024-03-22T05:45:29;6.90;;;4.85;;
48871;SDS011;36154;51.674;7.824;2024-03-22T05:47:54;7.00;;;5.70;;
48871;SDS011;36154;51.674;7.824;2024-03-22T05:50:19;6.43;;;5.50;;
48871;SDS011;36154;51.674;7.824;2024-03-22T05:52:45;7.63;;;5.80;;
48871;SDS011;36154;51.674;7.824;2024-03-22T05:55:10;8.52;;;6.25;;
48871;SDS011;36154;51.674;7.824;2024-03-22T05:57:36;8.25;;;6.60;;
48871;SDS011;36154;51.674;7.824;2024-03-22T06:00:01;7.20;;;6.43;;
48871;SDS011;36154;51.674;7.824;2024-03-22T06:02:27;8.45;;;7.30;;
48871;SDS011;36154;51.674;7.824;2024-03-22T06:04:52;7.35;;;6.57;;
48871;SDS011;36154;51.674;7.824;2024-03-22T06:07:18;7.50;;;6.78;;
48871;SDS011;36154;51.674;7.824;2024-03-22T06:09:43;7.68;;;6.30;;
48871;SDS011;36154;51.674;7.824;2024-03-22T06:12:15;6.72;;;5.50;;
48871;SDS011;36154;51.674;7.824;2024-03-22T06:14:41;6.45;;;5.22;;
48871;SDS011;36154;51.674;7.824;2024-03-22T06:17:07;5.35;;;4.85;;
48871;SDS011;36154;51.674;7.824;2024-03-22T06:19:33;5.78;;;4.90;;
48871;SDS011;36154;51.674;7.824;2024-03-22T06:21:58;5.97;;;4.80;;
48871;SDS011;36154;51.674;7.824;2024-03-22T06:24:23;5.05;;;4.60;;
48871;SDS011;36154;51.674;7.824;2024-03-22T06:26:49;5.32;;;4.93;;
48871;SDS011;36154;51.674;7.824;2024-03-22T06:29:14;6.30;;;4.82;;
48871;SDS011;36154;51.674;7.824;2024-03-22T06:31:41;5.10;;;4.60;;
48871;SDS011;36154;51.674;7.824;2024-03-22T06:34:09;4.97;;;4.30;;
48871;SDS011;36154;51.674;7.824;2024-03-22T06:36:34;6.25;;;4.38;;
48871;SDS011;36154;51.674;7.824;2024-03-22T06:38:59;5.25;;;4.75;;
48871;SDS011;36154;51.674;7.824;2024-03-22T06:41:25;5.28;;;4.22;;
48871;SDS011;36154;51.674;7.824;2024-03-22T06:43:51;5.28;;;4.78;;
48871;SDS011;36154;51.674;7.824;2024-03-22T06:46:16;4.93;;;4.53;;
48871;SDS011;36154;51.674;7.824;2024-03-22T06:48:42;4.50;;;4.00;;
48871;SDS011;36154;51.674;7.824;2024-03-22T06:51:07;4.63;;;4.22;;
48871;SDS011;36154;51.674;7.824;2024-03-22T06:53:32;4.63;;;4.22;;
48871;SDS011;36154;51.674;7.824;2024-03-22T06:55:58;4.57;;;3.88;;
48871;SDS011;36154;51.674;7.824;2024-03-22T06:58:23;4.37;;;4.00;;
48871;SDS011;36154;51.674;7.824;2024-03-22T07:00:48;4.60;;;4.25;;
48871;SDS011;36154;51.674;7.824;2024-03-22T07:03:14;4.70;;;3.70;;
48871;SDS011;36154;51.674;7.824;2024-03-22T07:05:39;4.35;;;3.65;;
48871;SDS011;36154;51.674;7.824;2024-03-22T07:08:04;3.13;;;2.93;;
48871;SDS011;36154;51.674;7.824;2024-03-22T07:10:30;3.67;;;3.38;;
48871;SDS011;36154;51.674;7.824;2024-03-22T07:12:56;4.78;;;3.30;;
48871;SDS011;36154;51.674;7.824;2024-03-22T07:15:22;4.13;;;3.80;;
48871;SDS011;36154;51.674;7.824;2024-03-22T07:17:48;5.20;;;3.47;;
48871;SDS011;36154;51.674;7.824;2024-03-22T07:20:14;3.83;;;3.53;;
48871;SDS011;36154;51.674;7.824;2024-03-22T07:22:39;4.43;;;3.50;;
48871;SDS011;36154;51.674;7.824;2024-03-22T07:25:04;7.10;;;3.78;;
48871;SDS011;36154;51.674;7.824;2024-03-22T07:27:30;4.97;;;4.30;;
48871;SDS011;36154;51.674;7.824;2024-03-22T07:29:56;4.78;;;4.20;;
48871;SDS011;36154;51.674;7.824;2024-03-22T07:32:22;5.32;;;4.15;;
48871;SDS011;36154;51.674;7.824;2024-03-22T07:34:47;6.63;;;4.00;;
48871;SDS011;36154;51.674;7.824;2024-03-22T07:37:12;6.18;;;4.72;;
48871;SDS011;36154;51.674;7.824;2024-03-22T07:39:38;6.25;;;5.15;;
48871;SDS011;36154;51.674;7.824;2024-03-22T07:42:03;11.07;;;5.43;;
48871;SDS011;36154;51.674;7.824;2024-03-22T07:44:28;7.63;;;5.45;;
48871;SDS011;36154;51.674;7.824;2024-03-22T07:46:53;5.43;;;4.50;;
48871;SDS011;36154;51.674;7.824;2024-03-22T07:49:19;8.00;;;4.57;;
48871;SDS011;36154;51.674;7.824;2024-03-22T07:51:45;7.15;;;5.07;;
48871;SDS011;36154;51.674;7.824;2024-03-22T07:54:10;6.50;;;5.15;;
48871;SDS011;36154;51.674;7.824;2024-03-22T07:56:35;6.20;;;4.80;;
48871;SDS011;36154;51.674;7.824;2024-03-22T07:59:01;8.15;;;5.30;;
48871;SDS011;36154;51.674;7.824;2024-03-22T08:01:26;8.68;;;4.95;;
48871;SDS011;36154;51.674;7.824;2024-03-22T08:03:51;7.25;;;5.07;;
48871;SDS011;36154;51.674;7.824;2024-03-22T08:06:17;7.72;;;5.22;;
48871;SDS011;36154;51.674;7.824;2024-03-22T08:08:43;8.30;;;5.20;;
48871;SDS011;36154;51.674;7.824;2024-03-22T08:11:08;7.38;;;4.82;;
48871;SDS011;36154;51.674;7.824;2024-03-22T08:13:34;8.82;;;5.07;;
48871;SDS011;36154;51.674;7.824;2024-03-22T08:15:59;10.93;;;5.38;;
48871;SDS011;36154;51.674;7.824;2024-03-22T08:18:24;7.25;;;4.90;;
48871;SDS011;36154;51.674;7.824;2024-03-22T08:20:50;9.40;;;5.15;;
48871;SDS011;36154;51.674;7.824;2024-03-22T08:23:15;8.63;;;4.75;;
48871;SDS011;36154;51.674;7.824;2024-03-22T08:25:42;5.60;;;5.03;;
48871;SDS011;36154;51.674;7.824;2024-03-22T08:28:08;6.28;;;5.28;;
48871;SDS011;36154;51.674;7.824;2024-03-22T08:30:33;11.57;;;5.57;;
48871;SDS011;36154;51.674;7.824;2024-03-22T08:33:02;11.45;;;5.57;;
48871;SDS011;36154;51.674;7.824;2024-03-22T08:35:28;9.32;;;5.47;;
48871;SDS011;36154;51.674;7.824;2024-03-22T08:37:54;6.25;;;5.07;;
48871;SDS011;36154;51.674;7.824;2024-03-22T08:40:19;7.85;;;4.70;;
48871;SDS011;36154;51.674;7.824;2024-03-22T08:42:44;6.93;;;5.65;;
48871;SDS011;36154;51.674;7.824;2024-03-22T08:45:09;5.80;;;5.20;;
48871;SDS011;36154;51.674;7.824;2024-03-22T08:47:35;6.88;;;5.82;;
48871;SDS011;36154;51.674;7.824;2024-03-22T08:50:00;6.78;;;5.85;;
48871;SDS011;36154;51.674;7.824;2024-03-22T08:52:25;6.43;;;5.60;;
48871;SDS011;36154;51.674;7.824;2024-03-22T08:54:52;6.07;;;5.45;;
48871;SDS011;36154;51.674;7.824;2024-03-22T08:57:18;6.47;;;5.00;;
48871;SDS011;36154;51.674;7.824;2024-03-22T08:59:44;9.10;;;5.20;;
48871;SDS011;36154;51.674;7.824;2024-03-22T09:02:09;6.35;;;5.07;;
48871;SDS011;36154;51.674;7.824;2024-03-22T09:04:36;6.15;;;5.28;;
48871;SDS011;36154;51.674;7.824;2024-03-22T09:07:01;5.80;;;4.95;;
48871;SDS011;36154;51.674;7.824;2024-03-22T09:09:26;6.78;;;5.30;;
48871;SDS011;36154;51.674;7.824;2024-03-22T09:11:52;6.47;;;5.38;;
48871;SDS011;36154;51.674;7.824;2024-03-22T09:14:17;6.30;;;5.53;;
48871;SDS011;36154;51.674;7.824;2024-03-22T09:16:42;7.60;;;6.07;;
48871;SDS011;36154;51.674;7.824;2024-03-22T09:19:08;5.38;;;4.88;;
48871;SDS011;36154;51.674;7.824;2024-03-22T09:21:33;5.32;;;4.78;;
48871;SDS011;36154;51.674;7.824;2024-03-22T09:23:58;9.43;;;5.00;;
48871;SDS011;36154;51.674;7.824;2024-03-22T09:26:24;9.10;;;5.73;;
48871;SDS011;36154;51.674;7.824;2024-03-22T09:28:49;5.97;;;4.90;;
48871;SDS011;36154;51.674;7.824;2024-03-22T09:31:17;5.03;;;4.28;;
48871;SDS011;36154;51.674;7.824;2024-03-22T09:33:42;6.93;;;5.30;;
48871;SDS011;36154;51.674;7.824;2024-03-22T09:36:08;6.22;;;5.30;;
48871;SDS011;36154;51.674;7.824;2024-03-22T09:38:33;7.18;;;5.25;;
48871;SDS011;36154;51.674;7.824;2024-03-22T09:40:58;9.65;;;6.03;;
48871;SDS011;36154;51.674;7.824;2024-03-22T09:43:24;6.80;;;5.40;;
48871;SDS011;36154;51.674;7.824;2024-03-22T09:45:52;7.25;;;5.13;;
48871;SDS011;36154;51.674;7.824;2024-03-22T09:48:19;7.38;;;5.00;;
48871;SDS011;36154;51.674;7.824;2024-03-22T09:50:47;5.43;;;4.80;;
48871;SDS011;36154;51.674;7.824;2024-03-22T09:53:13;6.70;;;4.57;;
48871;SDS011;36154;51.674;7.824;2024-03-22T09:55:43;5.90;;;5.20;;
48871;SDS011;36154;51.674;7.824;2024-03-22T09:58:10;5.00;;;4.53;;
48871;SDS011;36154;51.674;7.824;2024-03-22T10:00:35;10.02;;;5.80;;
48871;SDS011;36154;51.674;7.824;2024-03-22T10:03:01;10.02;;;5.55;;
48871;SDS011;36154;51.674;7.824;2024-03-22T10:05:28;9.02;;;5.75;;
48871;SDS011;36154;51.674;7.824;2024-03-22T10:07:54;8.63;;;5.57;;
48871;SDS011;36154;51.674;7.824;2024-03-22T10:10:20;8.18;;;5.45;;
48871;SDS011;36154;51.674;7.824;2024-03-22T10:12:45;6.40;;;5.80;;
48871;SDS011;36154;51.674;7.824;2024-03-22T10:15:11;6.43;;;5.22;;
48871;SDS011;36154;51.674;7.824;2024-03-22T10:17:37;9.80;;;5.72;;
48871;SDS011;36154;51.674;7.824;2024-03-22T10:20:04;5.88;;;5.28;;
48871;SDS011;36154;51.674;7.824;2024-03-22T10:22:34;11.25;;;5.95;;
48871;SDS011;36154;51.674;7.824;2024-03-22T10:25:00;8.65;;;5.25;;
48871;SDS011;36154;51.674;7.824;2024-03-22T10:27:26;8.60;;;4.95;;
48871;SDS011;36154;51.674;7.824;2024-03-22T10:29:52;5.90;;;4.85;;
48871;SDS011;36154;51.674;7.824;2024-03-22T10:32:17;6.00;;;5.40;;
48871;SDS011;36154;51.674;7.824;2024-03-22T10:34:43;8.10;;;5.07;;
48871;SDS011;36154;51.674;7.824;2024-03-22T10:37:10;6.65;;;4.85;;
48871;SDS011;36154;51.674;7.824;2024-03-22T10:39:39;6.03;;;5.20;;
48871;SDS011;36154;51.674;7.824;2024-03-22T10:42:05;8.38;;;5.38;;
48871;SDS011;36154;51.674;7.824;2024-03-22T10:44:31;8.02;;;5.85;;
48871;SDS011;36154;51.674;7.824;2024-03-22T10:46:56;8.27;;;5.25;;
48871;SDS011;36154;51.674;7.824;2024-03-22T10:49:26;7.05;;;5.00;;
48871;SDS011;36154;51.674;7.824;2024-03-22T10:51:59;10.80;;;5.45;;
48871;SDS011;36154;51.674;7.824;2024-03-22T10:54:32;5.47;;;4.95;;
48871;SDS011;36154;51.674;7.824;2024-03-22T10:57:01;7.47;;;5.03;;
48871;SDS011;36154;51.674;7.824;2024-03-22T10:59:26;7.97;;;5.18;;
48871;SDS011;36154;51.674;7.824;2024-03-22T11:01:52;6.22;;;4.97;;
48871;SDS011;36154;51.674;7.824;2024-03-22T11:04:17;5.65;;;4.80;;
48871;SDS011;36154;51.674;7.824;2024-03-22T11:06:47;8.95;;;5.63;;
48871;SDS011;36154;51.674;7.824;2024-03-22T11:09:18;7.63;;;4.65;;
48871;SDS011;36154;51.674;7.824;2024-03-22T11:11:46;5.97;;;5.15;;
48871;SDS011;36154;51.674;7.824;2024-03-22T11:14:12;6.18;;;4.80;;
48871;SDS011;36154;51.674;7.824;2024-03-22T11:16:37;8.13;;;5.47;;
48871;SDS011;36154;51.674;7.824;2024-03-22T11:19:02;10.38;;;5.63;;
48871;SDS011;36154;51.674;7.824;2024-03-22T11:21:27;7.97;;;4.90;;
48871;SDS011;36154;51.674;7.824;2024-03-22T11:23:55;10.35;;;5.25;;
48871;SDS011;36154;51.674;7.824;2024-03-22T11:26:20;5.70;;;4.82;;
48871;SDS011;36154;51.674;7.824;2024-03-22T11:28:46;10.90;;;5.53;;
48871;SDS011;36154;51.674;7.824;2024-03-22T11:31:11;6.32;;;5.65;;
48871;SDS011;36154;51.674;7.824;2024-03-22T11:33:37;8.88;;;5.53;;
48871;SDS011;36154;51.674;7.824;2024-03-22T11:36:03;13.88;;;4.97;;
48871;SDS011;36154;51.674;7.824;2024-03-22T11:38:29;10.30;;;5.38;;
48871;SDS011;36154;51.674;7.824;2024-03-22T11:40:55;11.35;;;5.65;;
48871;SDS011;36154;51.674;7.824;2024-03-22T11:43:24;8.82;;;5.13;;
48871;SDS011;36154;51.674;7.824;2024-03-22T11:45:52;6.97;;;4.20;;
48871;SDS011;36154;51.674;7.824;2024-03-22T11:48:18;6.55;;;4.80;;
48871;SDS011;36154;51.674;7.824;2024-03-22T11:50:43;9.00;;;5.20;;
48871;SDS011;36154;51.674;7.824;2024-03-22T11:53:11;8.15;;;5.55;;
48871;SDS011;36154;51.674;7.824;2024-03-22T11:55:37;7.40;;;5.18;;
48871;SDS011;36154;51.674;7.824;2024-03-22T11:58:02;7.90;;;5.53;;
48871;SDS011;36154;51.674;7.824;2024-03-22T12:00:28;6.22;;;5.03;;
48871;SDS011;36154;51.674;7.824;2024-03-22T12:02:53;6.18;;;4.70;;
48871;SDS011;36154;51.674;7.824;2024-03-22T12:05:20;9.82;;;5.18;;
48871;SDS011;36154;51.674;7.824;2024-03-22T12:07:45;16.70;;;5.13;;
48871;SDS011;36154;51.674;7.824;2024-03-22T12:10:11;9.27;;;5.10;;
48871;SDS011;36154;51.674;7.824;2024-03-22T12:12:36;8.25;;;4.97;;
48871;SDS011;36154;51.674;7.824;2024-03-22T12:15:02;5.47;;;4.63;;
48871;SDS011;36154;51.674;7.824;2024-03-22T12:17:28;11.20;;;4.72;;
48871;SDS011;36154;51.674;7.824;2024-03-22T12:19:53;7.57;;;5.07;;
48871;SDS011;36154;51.674;7.824;2024-03-22T12:22:19;8.13;;;5.15;;
48871;SDS011;36154;51.674;7.824;2024-03-22T12:24:45;7.15;;;6.15;;
48871;SDS011;36154;51.674;7.824;2024-03-22T12:27:10;6.03;;;5.30;;
48871;SDS011;36154;51.674;7.824;2024-03-22T12:29:36;7.63;;;4.85;;
48871;SDS011;36154;51.674;7.824;2024-03-22T12:32:01;5.38;;;4.85;;
48871;SDS011;36154;51.674;7.824;2024-03-22T12:34:28;6.05;;;4.72;;
48871;SDS011;36154;51.674;7.824;2024-03-22T12:36:54;8.10;;;5.30;;
48871;SDS011;36154;51.674;7.824;2024-03-22T12:39:20;8.55;;;5.72;;
48871;SDS011;36154;51.674;7.824;2024-03-22T12:41:45;10.40;;;5.65;;
48871;SDS011;36154;51.674;7.824;2024-03-22T12:44:10;5.40;;;4.97;;
48871;SDS011;36154;51.674;7.824;2024-03-22T12:46:36;7.75;;;5.50;;
48871;SDS011;36154;51.674;7.824;2024-03-22T12:49:01;5.75;;;5.18;;
48871;SDS011;36154;51.674;7.824;2024-03-22T12:51:26;7.45;;;5.72;;
48871;SDS011;36154;51.674;7.824;2024-03-22T12:53:51;6.40;;;5.72;;
48871;SDS011;36154;51.674;7.824;2024-03-22T12:56:17;6.53;;;5.63;;
48871;SDS011;36154;51.674;7.824;2024-03-22T12:58:42;6.63;;;5.85;;
48871;SDS011;36154;51.674;7.824;2024-03-22T13:01:08;6.35;;;5.30;;
48871;SDS011;36154;51.674;7.824;2024-03-22T13:03:35;6.10;;;5.57;;
48871;SDS011;36154;51.674;7.824;2024-03-22T13:06:02;7.03;;;5.47;;
48871;SDS011;36154;51.674;7.824;2024-03-22T13:08:27;15.98;;;5.85;;
48871;SDS011;36154;51.674;7.824;2024-03-22T13:10:52;7.15;;;5.07;;
48871;SDS011;36154;51.674;7.824;2024-03-22T13:13:18;7.70;;;6.90;;
48871;SDS011;36154;51.674;7.824;2024-03-22T13:15:44;8.68;;;6.82;;
48871;SDS011;36154;51.674;7.824;2024-03-22T13:18:09;7.53;;;6.78;;
48871;SDS011;36154;51.674;7.824;2024-03-22T13:20:35;6.53;;;5.78;;
48871;SDS011;36154;51.674;7.824;2024-03-22T13:23:01;10.13;;;7.10;;
48871;SDS011;36154;51.674;7.824;2024-03-22T13:25:26;6.75;;;6.15;;
48871;SDS011;36154;51.674;7.824;2024-03-22T13:27:52;8.40;;;6.65;;
48871;SDS011;36154;51.674;7.824;2024-03-22T13:30:17;8.65;;;6.93;;
48871;SDS011;36154;51.674;7.824;2024-03-22T13:32:42;11.50;;;7.20;;
48871;SDS011;36154;51.674;7.824;2024-03-22T13:35:08;9.23;;;6.90;;
48871;SDS011;36154;51.674;7.824;2024-03-22T13:37:33;9.68;;;6.05;;
48871;SDS011;36154;51.674;7.824;2024-03-22T13:39:59;10.38;;;5.45;;
48871;SDS011;36154;51.674;7.824;2024-03-22T13:42:25;8.85;;;6.10;;
48871;SDS011;36154;51.674;7.824;2024-03-22T13:44:51;7.47;;;5.90;;
48871;SDS011;36154;51.674;7.824;2024-03-22T13:47:16;7.68;;;6.43;;
48871;SDS011;36154;51.674;7.824;2024-03-22T13:49:42;6.40;;;5.78;;
48871;SDS011;36154;51.674;7.824;2024-03-22T13:52:08;6.22;;;5.65;;
48871;SDS011;36154;51.674;7.824;2024-03-22T13:54:34;7.07;;;5.82;;
48871;SDS011;36154;51.674;7.824;2024-03-22T13:57:00;8.20;;;6.38;;
48871;SDS011;36154;51.674;7.824;2024-03-22T13:59:26;12.00;;;6.63;;
48871;SDS011;36154;51.674;7.824;2024-03-22T14:01:51;9.38;;;6.63;;
48871;SDS011;36154;51.674;7.824;2024-03-22T14:04:17;7.38;;;6.68;;
48871;SDS011;36154;51.674;7.824;2024-03-22T14:06:44;9.27;;;7.35;;
48871;SDS011;36154;51.674;7.824;2024-03-22T14:09:10;8.48;;;7.38;;
48871;SDS011;36154;51.674;7.824;2024-03-22T14:11:38;8.45;;;7.75;;
48871;SDS011;36154;51.674;7.824;2024-03-22T14:14:03;8.30;;;7.53;;
48871;SDS011;36154;51.674;7.824;2024-03-22T14:16:29;9.35;;;7.78;;
48871;SDS011;36154;51.674;7.824;2024-03-22T14:18:55;9.88;;;8.77;;
48871;SDS011;36154;51.674;7.824;2024-03-22T14:21:20;11.05;;;10.02;;
48871;SDS011;36154;51.674;7.824;2024-03-22T14:23:47;13.48;;;11.07;;
48871;SDS011;36154;51.674;7.824;2024-03-22T14:26:16;12.70;;;10.90;;
48871;SDS011;36154;51.674;7.824;2024-03-22T14:28:42;14.02;;;11.82;;
48871;SDS011;36154;51.674;7.824;2024-03-22T14:31:08;12.98;;;11.63;;
48871;SDS011;36154;51.674;7.824;2024-03-22T14:33:34;14.85;;;12.13;;
48871;SDS011;36154;51.674;7.824;2024-03-22T14:36:01;13.05;;;11.35;;